Time;durP1;ratioP1;P1;durP2;ratioP2;P2;SDS_P1;SDS_P2;PMS_P1;PMS_P2;Temp;Humidity;BMP_temperature;BMP_pressure;BME280_temperature;BME280_humidity;BME280_pressure;Samples;Min_cycle;Max_cycle;Signal;HPM_P1;HPM_P2
2022/05/03 00:00:15;;;;;;;23.60;18.85;;;358.40;2329.60;;;;;;4881990;29;20435;-83
2022/05/03 00:03:00;;;;;;;21.83;18.75;;;358.40;2329.60;;;;;;4881220;29;20135;-83
2022/05/03 00:06:09;;;;;;;22.48;18.60;;;333.70;2329.60;;;;;;4899219;29;20025;-82
2022/05/03 00:08:42;;;;;;;18.90;16.92;;;333.50;2329.60;;;;;;4878726;29;20029;-84
2022/05/03 00:11:10;;;;;;;23.92;18.88;;;333.30;2329.60;;;;;;4893006;29;20593;-83
2022/05/03 00:17:31;;;;;;;26.58;20.67;;;333.50;2329.60;;;;;;4910096;29;20413;-83
2022/05/03 00:20:00;;;;;;;19.92;17.55;;;333.50;2329.60;;;;;;4899975;29;20032;-82
2022/05/03 00:22:27;;;;;;;25.52;19.77;;;333.40;2329.60;;;;;;4881360;29;20032;-83
2022/05/03 00:25:00;;;;;;;24.98;21.45;;;333.30;2329.60;;;;;;4896860;29;20049;-82
2022/05/03 00:27:27;;;;;;;19.50;17.23;;;333.20;2329.60;;;;;;4897692;29;20056;-82
2022/05/03 00:29:55;;;;;;;21.15;17.67;;;333.40;2329.60;;;;;;4896593;29;20471;-82
2022/05/03 00:32:23;;;;;;;19.67;17.45;;;333.30;2329.60;;;;;;4912750;29;20028;-83
2022/05/03 00:34:50;;;;;;;21.58;17.33;;;333.50;2329.60;;;;;;4900142;29;20035;-80
2022/05/03 00:37:16;;;;;;;22.10;18.17;;;333.50;2329.60;;;;;;4900108;29;20032;-81
2022/05/03 00:39:42;;;;;;;20.77;17.92;;;333.50;2329.60;;;;;;4900452;29;20032;-81
2022/05/03 00:42:12;;;;;;;22.13;17.88;;;333.60;2329.60;;;;;;4900743;29;20458;-82
2022/05/03 00:45:03;;;;;;;19.58;17.20;;;333.50;2329.60;;;;;;4900240;29;20024;-80
2022/05/03 00:51:43;;;;;;;23.23;18.83;;;333.40;2329.60;;;;;;4910751;29;20471;-83
2022/05/03 00:54:23;;;;;;;20.33;17.83;;;333.30;2329.60;;;;;;4900591;29;20032;-83
2022/05/03 00:57:20;;;;;;;23.08;18.55;;;333.30;2329.60;;;;;;4900005;29;20129;-82
2022/05/03 01:00:12;;;;;;;21.00;18.00;;;333.40;2329.60;;;;;;4899385;29;20482;-81
2022/05/03 01:03:07;;;;;;;23.52;19.83;;;333.50;2329.60;;;;;;4900117;29;20112;-82
2022/05/03 01:05:42;;;;;;;22.60;19.58;;;333.50;2329.60;;;;;;4899153;29;20038;-82
2022/05/03 01:08:12;;;;;;;28.38;21.05;;;333.50;2329.60;;;;;;4900212;29;20024;-83
2022/05/03 01:11:13;;;;;;;22.48;19.48;;;333.50;2329.60;;;;;;4899444;29;20039;-85
2022/05/03 01:14:52;;;;;;;24.35;20.30;;;333.60;2329.60;;;;;;4900193;29;20394;-84
2022/05/03 01:17:27;;;;;;;24.08;21.13;;;333.60;2329.60;;;;;;4891215;29;20047;-83
2022/05/03 01:20:54;;;;;;;;;;;;;;;;;;;;;
2022/05/03 01:23:57;;;;;;;21.75;19.17;;;333.40;2329.60;;;;;;4912012;29;20036;-83
2022/05/03 01:29:49;;;;;;;21.67;19.20;;;333.50;2329.60;;;;;;4920206;29;20076;-83
2022/05/03 01:32:22;;;;;;;22.65;19.63;;;333.40;2329.60;;;;;;4902283;29;20020;-82
2022/05/03 01:34:52;;;;;;;22.30;19.75;;;333.30;2329.60;;;;;;4903798;29;20028;-82
2022/05/03 01:38:11;;;;;;;23.40;21.00;;;333.30;2329.60;;;;;;4902731;29;20028;-81
2022/05/03 01:44:49;;;;;;;23.30;20.80;;;333.40;2329.60;;;;;;4886836;29;20126;-82
2022/05/03 01:47:23;;;;;;;25.05;22.35;;;333.20;2329.60;;;;;;4919964;29;20088;-80
2022/05/03 01:50:54;;;;;;;24.65;20.88;;;333.20;2329.60;;;;;;4918740;29;20039;-81
2022/05/03 01:54:00;;;;;;;24.05;21.50;;;333.10;2329.60;;;;;;4880459;29;20047;-81
2022/05/03 01:56:53;;;;;;;24.27;20.83;;;333.10;2329.60;;;;;;4858541;29;20408;-82
2022/05/03 02:03:35;;;;;;;23.92;19.98;;;333.30;2329.60;;;;;;4840134;29;20061;-83
2022/05/03 02:21:03;;;;;;;22.00;19.52;;;333.30;2329.60;;;;;;4788743;30;20042;-82
2022/05/03 02:24:36;;;;;;;;;;;;;;;;;;;;;
2022/05/03 02:27:15;;;;;;;21.67;19.40;;;333.40;2329.60;;;;;;4762096;30;20052;-82
2022/05/03 02:30:40;;;;;;;21.25;18.88;;;333.40;2329.60;;;;;;4754989;29;20062;-82
2022/05/03 02:52:01;;;;;;;;;;;;;;;;;;;;;
2022/05/03 02:59:14;;;;;;;27.02;23.17;;;332.90;2099.20;;;;;;4696535;30;20038;-83
2022/05/03 03:05:09;;;;;;;25.98;22.38;;;332.80;2329.60;;;;;;4769474;29;20051;-82
2022/05/03 03:08:01;;;;;;;26.00;23.20;;;308.10;2304.00;;;;;;4800427;29;20497;-83
2022/05/03 03:10:51;;;;;;;23.05;20.60;;;332.90;2329.60;;;;;;4896814;29;20048;-84
2022/05/03 03:14:09;;;;;;;23.75;21.33;;;332.90;2329.60;;;;;;4901776;29;20028;-84
2022/05/03 03:16:54;;;;;;;23.33;20.63;;;332.90;2329.60;;;;;;4825865;29;20030;-83
2022/05/03 03:19:42;;;;;;;22.13;19.83;;;332.80;2176.00;;;;;;4913829;29;20034;-83
2022/05/03 03:22:58;;;;;;;;;;;;;;;;;;;;;
2022/05/03 03:29:59;;;;;;;;;;;;;;;;;;;;;
2022/05/03 03:37:11;;;;;;;;;;;;;;;;;;;;;
2022/05/03 03:40:13;;;;;;;;;;;;;;;;;;;;;
2022/05/03 03:43:17;;;;;;;21.83;19.02;;;333.00;2329.60;;;;;;4860145;29;20060;-84
2022/05/03 03:50:56;;;;;;;;;;;;;;;;;;;;;
2022/05/03 03:53:40;;;;;;;;;;;;;;;;;;;;;
2022/05/03 04:00:05;;;;;;;;;;;;;;;;;;;;;
2022/05/03 04:05:55;;;;;;;14.37;12.87;;;333.10;2329.60;;;;;;4841027;29;20053;-84
2022/05/03 04:08:24;;;;;;;14.00;12.52;;;333.10;2329.60;;;;;;4841013;29;20047;-84
2022/05/03 04:10:50;;;;;;;13.70;12.30;;;333.40;2329.60;;;;;;4874459;29;20482;-83
2022/05/03 04:13:16;;;;;;;14.25;12.75;;;333.10;2329.60;;;;;;4900252;29;20561;-83
2022/05/03 04:15:42;;;;;;;14.68;12.00;;;333.20;2329.60;;;;;;4900726;29;20031;-83
2022/05/03 04:18:09;;;;;;;12.68;11.27;;;333.10;2329.60;;;;;;4899938;29;20505;-83
2022/05/03 04:20:35;;;;;;;12.32;11.07;;;333.10;2329.60;;;;;;4900478;29;20036;-83
2022/05/03 04:23:01;;;;;;;12.82;11.40;;;333.10;2329.60;;;;;;4900145;29;20027;-83
2022/05/03 04:25:33;;;;;;;14.98;11.98;;;333.10;2329.60;;;;;;4900524;29;20115;-83
2022/05/03 04:27:59;;;;;;;13.53;11.43;;;333.10;2329.60;;;;;;4899661;29;20032;-83
2022/05/03 04:30:25;;;;;;;13.50;12.05;;;333.20;2329.60;;;;;;4900246;29;20297;-83
2022/05/03 04:32:58;;;;;;;15.80;12.52;;;333.20;2329.60;;;;;;4916749;29;20040;-82
2022/05/03 04:35:24;;;;;;;13.68;12.27;;;333.10;2329.60;;;;;;4899879;29;20032;-83
2022/05/03 04:37:50;;;;;;;13.95;12.25;;;333.00;2329.60;;;;;;4900390;29;20032;-81
2022/05/03 04:40:16;;;;;;;13.45;12.10;;;333.10;2329.60;;;;;;4899648;29;20020;-83
2022/05/03 04:42:42;;;;;;;15.30;11.68;;;333.10;2329.60;;;;;;4900406;29;20036;-82
2022/05/03 04:45:10;;;;;;;13.35;11.98;;;333.10;2329.60;;;;;;4899341;29;20047;-82
2022/05/03 04:47:36;;;;;;;12.50;10.18;;;333.20;2329.60;;;;;;4899445;29;20024;-82
2022/05/03 04:50:02;;;;;;;11.73;10.52;;;333.30;2329.60;;;;;;4899969;29;20024;-83
2022/05/03 04:52:29;;;;;;;12.55;11.20;;;333.20;2329.60;;;;;;4884849;29;20039;-82
2022/05/03 04:54:58;;;;;;;14.23;12.20;;;333.30;2329.60;;;;;;4881535;29;20494;-82
2022/05/03 04:57:27;;;;;;;13.30;11.23;;;333.20;2329.60;;;;;;4880518;29;20084;-83
2022/05/03 04:59:53;;;;;;;14.20;12.70;;;333.30;2329.60;;;;;;4880999;29;20028;-82
2022/05/03 05:02:19;;;;;;;13.15;11.55;;;333.30;2329.60;;;;;;4900068;29;20067;-83
2022/05/03 05:04:45;;;;;;;12.85;11.55;;;333.20;2329.60;;;;;;4902611;29;20052;-82
2022/05/03 05:07:12;;;;;;;14.65;12.35;;;333.30;2329.60;;;;;;4920002;29;20059;-83
2022/05/03 05:10:23;;;;;;;14.18;11.75;;;333.40;2329.60;;;;;;4919442;29;20024;-82
2022/05/03 05:12:41;;;;;;;12.88;11.07;;;333.40;2329.60;;;;;;4920605;29;20058;-82
2022/05/03 05:19:12;;;;;;;;;;;;;;;;;;;;;
2022/05/03 05:21:50;;;;;;;13.30;11.93;;;333.40;2329.60;;;;;;4895742;29;20028;-82
2022/05/03 05:25:30;;;;;;;16.92;12.40;;;333.40;2329.60;;;;;;4884944;29;20036;-85
2022/05/03 05:35:12;;;;;;;;;;;;;;;;;;;;;
2022/05/03 05:45:24;;;;;;;;;;;;;;;;;;;;;
2022/05/03 05:48:14;;;;;;;24.83;18.75;;;333.10;2329.60;;;;;;4753726;30;20032;-84
2022/05/03 05:51:31;;;;;;;24.08;19.95;;;333.10;2329.60;;;;;;4752636;29;20143;-83
2022/05/03 06:08:51;;;;;;;13.48;10.93;;;333.40;2329.60;;;;;;4805768;29;20039;-83
2022/05/03 06:12:23;;;;;;;17.83;13.95;;;333.40;2329.60;;;;;;4803185;29;20074;-83
2022/05/03 06:26:21;;;;;;;;;;;;;;;;;;;;;
2022/05/03 06:39:56;;;;;;;13.15;10.43;;;333.50;2329.60;;;;;;4671625;30;20102;-82
2022/05/03 06:42:23;;;;;;;14.30;11.48;;;333.00;2329.60;;;;;;4712515;30;20024;-83
2022/05/03 06:44:51;;;;;;;12.75;10.60;;;333.50;2329.60;;;;;;4762391;29;20694;-82
2022/05/03 06:47:22;;;;;;;12.45;11.15;;;333.50;2329.60;;;;;;4854846;29;20138;-83
2022/05/03 06:49:52;;;;;;;10.45;9.25;;;333.40;2329.60;;;;;;4880400;29;20388;-83
2022/05/03 06:55:40;;;;;;;14.88;11.60;;;333.60;2329.60;;;;;;4859522;29;20048;-84
2022/05/03 06:58:06;;;;;;;16.85;13.20;;;333.60;2329.60;;;;;;4880524;29;20067;-79
2022/05/03 07:00:32;;;;;;;15.35;10.43;;;358.40;2329.60;;;;;;4879095;29;20040;-78
2022/05/03 07:02:58;;;;;;;12.93;9.35;;;358.40;2329.60;;;;;;4880354;29;20036;-76
2022/05/03 07:05:31;;;;;;;11.77;10.57;;;333.70;2329.60;;;;;;4882670;29;20391;-79
2022/05/03 07:08:03;;;;;;;13.10;11.05;;;358.50;2329.60;;;;;;4883199;29;20028;-81
2022/05/03 07:10:29;;;;;;;14.05;10.15;;;358.50;2329.60;;;;;;4883153;29;20071;-80
2022/05/03 07:12:55;;;;;;;14.20;9.40;;;358.50;2329.60;;;;;;4898588;29;20040;-80
2022/05/03 07:15:24;;;;;;;11.90;9.68;;;358.80;2329.60;;;;;;4890350;29;20024;-82
2022/05/03 07:23:26;;;;;;;12.18;10.88;;;358.50;2329.60;;;;;;4918804;29;20127;-79
2022/05/03 07:29:40;;;;;;;16.92;12.02;;;358.90;2329.60;;;;;;4873557;29;20025;-84
2022/05/03 07:32:09;;;;;;;11.70;10.40;;;359.20;2329.60;;;;;;4871731;29;20043;-84
2022/05/03 07:37:38;;;;;;;11.18;9.95;;;359.20;2329.60;;;;;;4899744;29;20055;-84
2022/05/03 07:40:51;;;;;;;11.32;8.13;;;359.30;2329.60;;;;;;4882943;29;20025;-84
2022/05/03 07:43:32;;;;;;;14.55;11.38;;;359.30;2329.60;;;;;;4898163;29;20055;-84
2022/05/03 07:50:27;;;;;;;11.55;9.52;;;359.20;2329.60;;;;;;4805094;29;20041;-85
2022/05/03 07:53:16;;;;;;;13.63;9.57;;;359.30;2329.60;;;;;;4789150;29;20031;-86
2022/05/03 07:55:50;;;;;;;11.05;9.93;;;359.20;2329.60;;;;;;4787212;29;20036;-85
2022/05/03 07:58:22;;;;;;;10.70;9.35;;;359.30;2329.60;;;;;;4788669;29;20166;-86
2022/05/03 08:01:17;;;;;;;10.60;8.75;;;384.10;2329.60;;;;;;4787702;29;20398;-84
2022/05/03 08:03:43;;;;;;;32.75;11.05;;;384.00;2329.60;;;;;;4799059;29;20067;-80
2022/05/03 08:06:15;;;;;;;10.50;8.35;;;384.10;2329.60;;;;;;4820671;29;20032;-78
2022/05/03 08:08:44;;;;;;;12.33;10.03;;;384.00;2329.60;;;;;;4897912;29;20029;-80
2022/05/03 08:14:09;;;;;;;10.68;8.77;;;359.30;2329.60;;;;;;4890318;29;20124;-78
2022/05/03 08:16:38;;;;;;;12.73;9.77;;;359.20;2329.60;;;;;;4896946;29;20104;-83
2022/05/03 08:19:05;;;;;;;12.05;8.82;;;384.00;2329.60;;;;;;4897351;29;20033;-83
2022/05/03 08:21:47;;;;;;;;;;;;;;;;;;;;;
2022/05/03 08:24:34;;;;;;;34.43;24.53;;;384.30;2329.60;;;;;;4898405;29;20503;-81
2022/05/03 08:27:07;;;;;;;22.77;16.80;;;384.40;2329.60;;;;;;4897726;29;20032;-83
2022/05/03 08:29:39;;;;;;;14.45;10.75;;;384.50;2329.60;;;;;;4881963;29;20020;-84
2022/05/03 08:32:09;;;;;;;18.08;13.63;;;384.50;2329.60;;;;;;4901276;29;20029;-83
2022/05/03 08:34:35;;;;;;;16.85;12.35;;;384.20;2329.60;;;;;;4881835;29;20033;-81
2022/05/03 08:42:31;;;;;;;13.23;10.85;;;384.60;2329.60;;;;;;4919940;29;20053;-81
2022/05/03 08:45:04;;;;;;;12.27;10.98;;;384.80;2329.60;;;;;;4899344;29;20114;-79
2022/05/03 08:47:31;;;;;;;10.30;8.63;;;409.60;2355.20;;;;;;4881836;29;20032;-81
2022/05/03 08:50:13;;;;;;;7.10;5.75;;;409.60;2355.20;;;;;;4897160;29;20398;-79
2022/05/03 08:52:54;;;;;;;11.50;7.47;;;409.70;2355.20;;;;;;4881778;29;20089;-81
2022/05/03 08:55:23;;;;;;;9.38;7.15;;;409.70;2355.20;;;;;;4898888;29;20040;-81
2022/05/03 08:57:50;;;;;;;10.25;7.38;;;409.60;2355.20;;;;;;4899240;29;20053;-80
2022/05/03 09:00:20;;;;;;;12.57;9.05;;;409.80;2355.20;;;;;;4905286;29;20017;-80
2022/05/03 09:02:49;;;;;;;13.77;9.43;;;409.80;2355.20;;;;;;4920844;29;20044;-81
2022/05/03 09:05:16;;;;;;;12.63;8.60;;;409.90;2355.20;;;;;;4906772;29;20057;-81
2022/05/03 09:07:50;;;;;;;14.10;9.73;;;409.90;2355.20;;;;;;4884968;29;20028;-78
2022/05/03 09:10:32;;;;;;;11.38;7.40;;;410.00;2355.20;;;;;;4900191;29;20036;-81
2022/05/03 09:13:28;;;;;;;9.10;6.50;;;410.00;2355.20;;;;;;4917195;29;20031;-82
2022/05/03 09:16:29;;;;;;;12.00;7.95;;;410.10;2355.20;;;;;;4899925;29;20040;-81
2022/05/03 09:18:55;;;;;;;26.95;15.13;;;410.20;2355.20;;;;;;4916619;29;20036;-82
2022/05/03 09:24:12;;;;;;;21.65;12.40;;;410.30;2355.20;;;;;;4916799;29;20173;-82
2022/05/03 09:26:39;;;;;;;15.43;10.20;;;410.30;2355.20;;;;;;4899461;29;20031;-82
2022/05/03 09:29:08;;;;;;;31.52;17.50;;;410.20;2355.20;;;;;;4899811;29;20111;-82
2022/05/03 09:31:47;;;;;;;17.25;10.02;;;410.30;2355.20;;;;;;4900181;29;20028;-80
2022/05/03 09:34:26;;;;;;;13.98;9.65;;;410.20;2355.20;;;;;;4899663;29;20040;-77
2022/05/03 09:36:58;;;;;;;15.38;8.65;;;410.20;2355.20;;;;;;4899849;29;20032;-81
2022/05/03 09:39:41;;;;;;;13.90;9.50;;;410.00;2355.20;;;;;;4900194;29;20080;-81
2022/05/03 09:42:34;;;;;;;11.55;7.43;;;410.20;2355.20;;;;;;4915488;29;20039;-78
2022/05/03 09:45:02;;;;;;;8.05;5.13;;;410.20;2355.20;;;;;;4915994;29;20482;-80
2022/05/03 09:47:33;;;;;;;17.98;16.05;;;410.00;2355.20;;;;;;4899943;29;20119;-79
2022/05/03 09:50:07;;;;;;;14.00;6.70;;;410.00;2355.20;;;;;;4901069;29;20077;-79
2022/05/03 09:52:40;;;;;;;8.02;5.40;;;409.90;2355.20;;;;;;4918631;29;20079;-82
2022/05/03 09:55:09;;;;;;;10.38;8.10;;;409.80;2355.20;;;;;;4916263;29;20062;-82
2022/05/03 09:57:38;;;;;;;9.43;8.02;;;410.00;2355.20;;;;;;4884691;29;20029;-81
2022/05/03 10:00:06;;;;;;;13.20;9.63;;;410.30;2355.20;;;;;;4901301;29;20615;-79
2022/05/03 10:02:32;;;;;;;8.48;5.70;;;410.50;2355.20;;;;;;4900755;29;20028;-83
2022/05/03 10:04:59;;;;;;;10.88;6.05;;;435.20;2355.20;;;;;;4915713;29;20059;-80
2022/05/03 10:07:27;;;;;;;10.82;5.95;;;410.50;2355.20;;;;;;4899802;29;20394;-80
2022/05/03 10:09:53;;;;;;;8.60;5.88;;;435.30;2355.20;;;;;;4899792;29;20035;-79
2022/05/03 10:12:19;;;;;;;9.45;6.45;;;435.50;2355.20;;;;;;4901099;29;20084;-79
2022/05/03 10:14:49;;;;;;;11.30;5.93;;;435.50;2355.20;;;;;;4899738;29;20032;-83
2022/05/03 10:23:30;;;;;;;7.25;5.68;;;436.00;2355.20;;;;;;4870198;29;20060;-83
2022/05/03 10:26:03;;;;;;;11.40;5.15;;;435.90;2355.20;;;;;;4882161;29;20029;-80
2022/05/03 10:29:00;;;;;;;8.80;7.53;;;435.90;2355.20;;;;;;4865584;29;20128;-80
2022/05/03 10:31:26;;;;;;;7.95;5.38;;;460.80;2380.80;;;;;;4881309;29;20033;-80
2022/05/03 10:33:53;;;;;;;9.68;6.60;;;460.80;2380.80;;;;;;4881894;29;20032;-82
2022/05/03 10:36:36;;;;;;;9.90;7.07;;;436.10;2355.20;;;;;;4865128;29;20052;-80
2022/05/03 10:39:22;;;;;;;11.07;6.57;;;460.90;2380.80;;;;;;4880740;29;20029;-80
2022/05/03 10:41:53;;;;;;;10.57;6.13;;;460.90;2380.80;;;;;;4865917;29;20057;-81
2022/05/03 10:44:42;;;;;;;19.48;13.77;;;460.90;2380.80;;;;;;4866239;29;20040;-79
2022/05/03 10:47:10;;;;;;;7.75;6.10;;;461.20;2380.80;;;;;;4866442;29;20096;-80
2022/05/03 10:50:19;;;;;;;7.45;6.20;;;460.90;2380.80;;;;;;4865192;29;20029;-80
2022/05/03 10:53:01;;;;;;;8.80;6.32;;;460.90;2380.80;;;;;;4875185;29;20040;-79
2022/05/03 10:55:38;;;;;;;9.10;7.75;;;460.80;2380.80;;;;;;4866629;29;20396;-79
2022/05/03 10:58:28;;;;;;;10.38;8.10;;;460.80;2380.80;;;;;;4881138;29;20044;-80
2022/05/03 11:01:13;;;;;;;12.95;9.25;;;436.10;2355.20;;;;;;4882437;29;20542;-79
2022/05/03 11:03:41;;;;;;;17.23;11.43;;;436.00;2355.20;;;;;;4901838;29;20139;-81
2022/05/03 11:06:19;;;;;;;11.70;8.88;;;435.80;2355.20;;;;;;4899781;29;20063;-81
2022/05/03 11:11:53;;;;;;;13.63;10.90;;;435.70;2355.20;;;;;;4918370;29;20498;-79
2022/05/03 11:14:21;;;;;;;9.13;7.43;;;435.60;2355.20;;;;;;4917764;29;20040;-77
2022/05/03 11:17:05;;;;;;;12.35;9.77;;;435.40;2355.20;;;;;;4910942;29;20035;-80
2022/05/03 11:19:32;;;;;;;14.00;10.02;;;435.40;2355.20;;;;;;4898535;29;20051;-80
2022/05/03 11:21:58;;;;;;;13.60;10.57;;;435.30;2355.20;;;;;;4882634;29;20465;-81
2022/05/03 11:24:27;;;;;;;10.93;9.82;;;435.40;2355.20;;;;;;4883118;29;20126;-77
2022/05/03 11:27:01;;;;;;;11.75;9.73;;;435.40;2355.20;;;;;;4886058;29;20102;-81
2022/05/03 11:29:34;;;;;;;14.10;10.75;;;435.80;2355.20;;;;;;4901697;29;20039;-80
2022/05/03 11:32:01;;;;;;;14.73;11.70;;;460.80;2380.80;;;;;;4901433;29;20454;-80
2022/05/03 11:34:38;;;;;;;13.50;11.18;;;436.10;2355.20;;;;;;4901048;29;20130;-80
2022/05/03 11:37:04;;;;;;;10.02;7.38;;;460.90;2380.80;;;;;;4900782;29;20031;-80
2022/05/03 11:39:30;;;;;;;11.57;9.13;;;436.10;2355.20;;;;;;4901542;29;20119;-79
2022/05/03 11:41:57;;;;;;;11.32;7.82;;;461.00;2380.80;;;;;;4901077;29;20028;-82
2022/05/03 11:44:26;;;;;;;10.02;8.00;;;461.50;2380.80;;;;;;4901300;29;20043;-80
2022/05/03 11:46:52;;;;;;;8.68;7.78;;;486.50;2380.80;;;;;;4900991;29;20497;-79
2022/05/03 11:49:18;;;;;;;10.73;8.50;;;486.90;2380.80;;;;;;4918284;29;20024;-81
2022/05/03 11:57:22;;;;;;;7.35;5.75;;;486.50;2380.80;;;;;;4918239;29;20031;-81
2022/05/03 11:59:58;;;;;;;13.32;6.72;;;486.80;2380.80;;;;;;4918415;29;20047;-82
2022/05/03 12:02:56;;;;;;;11.77;6.22;;;487.10;2380.80;;;;;;4900905;29;20071;-81
2022/05/03 12:05:22;;;;;;;8.27;5.57;;;487.00;2380.80;;;;;;4860934;29;20452;-79
2022/05/03 12:07:56;;;;;;;6.60;5.70;;;487.00;2380.80;;;;;;4882020;29;20100;-80
2022/05/03 12:10:30;;;;;;;8.32;5.38;;;487.20;2380.80;;;;;;4899049;29;20032;-81
2022/05/03 12:13:12;;;;;;;16.48;11.85;;;512.50;2380.80;;;;;;4881543;29;20135;-80
2022/05/03 12:15:45;;;;;;;16.55;11.80;;;512.40;2380.80;;;;;;4881472;29;20475;-77
2022/05/03 12:18:18;;;;;;;7.68;5.72;;;537.70;2406.40;;;;;;4882130;29;20028;-80
2022/05/03 12:20:55;;;;;;;7.20;6.10;;;538.20;2406.40;;;;;;4881293;29;20055;-79
2022/05/03 12:23:34;;;;;;;7.22;5.35;;;538.40;2406.40;;;;;;4881711;29;20047;-78
2022/05/03 12:26:20;;;;;;;6.70;4.93;;;538.10;2406.40;;;;;;4897388;29;20033;-80
2022/05/03 12:28:47;;;;;;;10.15;7.90;;;537.90;2304.00;;;;;;4881933;29;20028;-77
2022/05/03 12:31:14;;;;;;;14.35;9.38;;;538.20;2304.00;;;;;;4898073;29;20032;-76
2022/05/03 12:33:55;;;;;;;8.65;7.13;;;563.30;2406.40;;;;;;4881801;29;20774;-75
2022/05/03 12:36:36;;;;;;;8.13;6.03;;;563.40;2355.20;;;;;;4896468;29;20024;-76
2022/05/03 12:39:22;;;;;;;7.97;5.50;;;537.90;2150.40;;;;;;4881842;29;20067;-78
2022/05/03 12:42:10;;;;;;;6.82;5.43;;;538.20;2278.40;;;;;;4881741;29;20386;-76
2022/05/03 12:45:06;;;;;;;10.48;5.78;;;538.30;2252.80;;;;;;4881218;29;20047;-77
2022/05/03 12:47:32;;;;;;;7.60;5.70;;;538.20;2227.20;;;;;;4895327;29;20131;-76
2022/05/03 12:49:59;;;;;;;7.28;6.05;;;537.90;2252.80;;;;;;4880721;29;20025;-77
2022/05/03 12:52:24;;;;;;;11.68;7.07;;;537.60;2355.20;;;;;;4881724;29;20036;-77
2022/05/03 12:54:51;;;;;;;10.77;7.40;;;512.80;2304.00;;;;;;4881474;29;20032;-77
2022/05/03 13:00:03;;;;;;;8.13;5.68;;;512.00;2355.20;;;;;;4897871;29;20040;-81
2022/05/03 13:02:29;;;;;;;8.63;5.53;;;486.90;2380.80;;;;;;4881585;29;20037;-77
2022/05/03 13:04:55;;;;;;;8.85;5.57;;;486.50;2380.80;;;;;;4895934;29;20104;-78
2022/05/03 13:07:20;;;;;;;11.00;5.30;;;461.70;2380.80;;;;;;4917190;29;20024;-80
2022/05/03 13:09:46;;;;;;;11.23;5.22;;;461.40;2380.80;;;;;;4915585;29;20498;-81
2022/05/03 13:12:12;;;;;;;11.65;6.82;;;461.20;2380.80;;;;;;4915575;29;20029;-81
2022/05/03 13:14:39;;;;;;;16.55;8.82;;;461.10;2380.80;;;;;;4900157;29;20427;-81
2022/05/03 13:17:05;;;;;;;13.90;8.38;;;461.00;2380.80;;;;;;4915784;29;20541;-81
2022/05/03 13:19:31;;;;;;;8.70;6.30;;;460.90;2380.80;;;;;;4915453;29;20119;-79
2022/05/03 13:21:57;;;;;;;8.07;6.75;;;460.80;2380.80;;;;;;4915149;29;20054;-79
2022/05/03 13:24:24;;;;;;;11.40;7.70;;;436.00;2355.20;;;;;;4916822;29;20040;-83
2022/05/03 13:26:51;;;;;;;15.60;10.65;;;435.40;2355.20;;;;;;4919630;29;20032;-80
2022/05/03 13:29:19;;;;;;;9.13;6.22;;;435.20;2355.20;;;;;;4919345;29;20072;-80
2022/05/03 13:31:45;;;;;;;32.45;24.10;;;410.30;2355.20;;;;;;4918901;29;20028;-80
2022/05/03 13:34:13;;;;;;;26.17;18.38;;;410.10;2355.20;;;;;;4919274;29;20061;-82
2022/05/03 13:42:10;;;;;;;6.50;4.43;;;410.50;2355.20;;;;;;4903668;29;20076;-80
2022/05/03 13:44:37;;;;;;;10.00;7.15;;;410.40;2355.20;;;;;;4901532;29;20463;-79
2022/05/03 13:47:04;;;;;;;5.90;4.05;;;410.50;2355.20;;;;;;4899372;29;20036;-82
2022/05/03 13:49:31;;;;;;;7.85;5.20;;;435.30;2355.20;;;;;;4919220;29;20083;-81
2022/05/03 13:51:58;;;;;;;8.18;5.80;;;410.50;2355.20;;;;;;4906382;29;20463;-80
2022/05/03 13:54:24;;;;;;;8.38;5.95;;;435.50;2355.20;;;;;;4884627;29;20036;-80
2022/05/03 13:56:50;;;;;;;10.20;6.70;;;436.00;2355.20;;;;;;4902203;29;20032;-82
2022/05/03 13:59:16;;;;;;;8.88;6.30;;;435.60;2355.20;;;;;;4899290;29;20028;-81
2022/05/03 14:01:45;;;;;;;7.65;4.70;;;435.90;2355.20;;;;;;4909567;29;20480;-80
2022/05/03 14:04:12;;;;;;;8.65;5.70;;;436.00;2355.20;;;;;;4883514;29;20073;-79
2022/05/03 14:06:38;;;;;;;12.57;9.68;;;460.80;2380.80;;;;;;4883178;29;20550;-79
2022/05/03 14:09:04;;;;;;;17.60;11.70;;;461.00;2380.80;;;;;;4884129;29;20169;-80
2022/05/03 14:11:32;;;;;;;48.08;30.52;;;460.90;2380.80;;;;;;4884260;29;20490;-79
2022/05/03 14:13:58;;;;;;;29.98;21.85;;;461.30;2380.80;;;;;;4883533;29;20521;-81
2022/05/03 14:16:24;;;;;;;8.23;5.10;;;486.40;2380.80;;;;;;4883987;29;20475;-78
2022/05/03 14:18:50;;;;;;;8.27;4.47;;;486.50;2380.80;;;;;;4900687;29;20044;-77
2022/05/03 14:21:15;;;;;;;5.85;3.33;;;486.50;2380.80;;;;;;4883695;29;20501;-78
2022/05/03 14:23:41;;;;;;;7.18;4.95;;;461.60;2304.00;;;;;;4884105;29;20036;-78
2022/05/03 14:26:09;;;;;;;7.65;5.07;;;461.60;2329.60;;;;;;4885709;29;20039;-80
2022/05/03 14:28:35;;;;;;;7.20;3.70;;;461.30;2380.80;;;;;;4892751;29;20028;-79
2022/05/03 14:31:02;;;;;;;8.77;5.97;;;461.10;2355.20;;;;;;4900515;29;20028;-76
2022/05/03 14:33:28;;;;;;;10.52;6.07;;;461.20;2380.80;;;;;;4884041;29;20044;-78
2022/05/03 14:35:54;;;;;;;37.55;31.88;;;460.90;2380.80;;;;;;4881982;29;20127;-80
2022/05/03 14:38:20;;;;;;;26.10;20.58;;;461.00;2380.80;;;;;;4883850;29;20112;-80
2022/05/03 14:40:46;;;;;;;7.90;5.93;;;461.20;2380.80;;;;;;4883354;29;20024;-82
2022/05/03 14:43:11;;;;;;;10.00;5.82;;;461.10;2355.20;;;;;;4883602;29;20040;-82
2022/05/03 14:45:37;;;;;;;9.48;4.93;;;461.20;2355.20;;;;;;4899784;29;20027;-80
2022/05/03 14:48:06;;;;;;;9.38;4.28;;;460.80;2355.20;;;;;;4899307;29;20173;-78
2022/05/03 14:50:32;;;;;;;12.60;6.85;;;460.90;2380.80;;;;;;4917109;29;20039;-81
2022/05/03 14:52:58;;;;;;;14.00;9.02;;;461.20;2380.80;;;;;;4902219;29;20040;-81
2022/05/03 14:55:24;;;;;;;14.50;8.20;;;461.30;2355.20;;;;;;4913432;29;20028;-83
2022/05/03 15:03:27;;;;;;;8.00;5.65;;;461.30;2304.00;;;;;;4898908;29;20049;-80
2022/05/03 15:05:56;;;;;;;11.52;5.60;;;461.40;2278.40;;;;;;4898271;29;20426;-80
2022/05/03 15:08:22;;;;;;;8.35;5.05;;;486.50;2355.20;;;;;;4899019;29;20088;-80
2022/05/03 15:10:48;;;;;;;8.57;4.72;;;486.50;2304.00;;;;;;4898113;29;20036;-81
2022/05/03 15:13:14;;;;;;;8.50;6.13;;;487.00;2252.80;;;;;;4898794;29;20040;-80
2022/05/03 15:15:41;;;;;;;12.25;6.47;;;487.20;2304.00;;;;;;4899715;29;20368;-80
2022/05/03 15:18:08;;;;;;;8.18;5.30;;;487.10;2176.00;;;;;;4898260;29;20140;-79
2022/05/03 15:20:35;;;;;;;8.45;5.35;;;512.00;2227.20;;;;;;4883300;29;20173;-80
2022/05/03 15:25:48;;;;;;;10.10;6.90;;;512.00;2124.80;;;;;;4918479;29;20039;-78
2022/05/03 15:28:15;;;;;;;6.88;4.50;;;487.10;2124.80;;;;;;4901371;29;20029;-78
2022/05/03 15:30:44;;;;;;;6.32;4.88;;;487.30;2150.40;;;;;;4901799;29;20040;-79
2022/05/03 15:33:11;;;;;;;10.48;8.90;;;487.10;2124.80;;;;;;4918108;29;20096;-78
2022/05/03 15:35:36;;;;;;;10.88;7.18;;;486.90;2099.20;;;;;;4918585;29;20386;-80
2022/05/03 15:38:03;;;;;;;9.02;5.65;;;486.70;2124.80;;;;;;4899822;29;20028;-80
2022/05/03 15:40:29;;;;;;;12.40;8.82;;;486.60;2150.40;;;;;;4901302;29;20490;-79
2022/05/03 15:42:55;;;;;;;10.65;5.80;;;486.70;2150.40;;;;;;4901177;29;20127;-80
2022/05/03 15:45:21;;;;;;;11.98;5.93;;;486.60;2124.80;;;;;;4900397;29;20127;-79
2022/05/03 15:47:47;;;;;;;14.68;10.07;;;486.50;2176.00;;;;;;4901284;29;20028;-78
2022/05/03 15:50:15;;;;;;;12.68;7.85;;;486.50;2150.40;;;;;;4900803;29;20024;-80
2022/05/03 15:52:51;;;;;;;10.75;8.10;;;461.60;2252.80;;;;;;4901049;29;20024;-77
2022/05/03 15:55:18;;;;;;;9.35;6.78;;;461.50;2304.00;;;;;;4901093;29;20032;-80
2022/05/03 15:57:44;;;;;;;10.00;6.03;;;461.50;2380.80;;;;;;4899850;29;20466;-80
2022/05/03 16:00:13;;;;;;;10.18;6.05;;;461.10;2355.20;;;;;;4917863;29;20071;-79
2022/05/03 16:02:43;;;;;;;9.30;5.53;;;461.20;2355.20;;;;;;4915387;29;20024;-81
2022/05/03 16:05:17;;;;;;;8.68;6.20;;;460.90;2380.80;;;;;;4882377;29;20116;-81
2022/05/03 16:07:44;;;;;;;8.98;6.78;;;436.10;2355.20;;;;;;4882849;29;20068;-80
2022/05/03 16:10:10;;;;;;;12.20;8.57;;;436.10;2355.20;;;;;;4916747;29;20067;-81
2022/05/03 16:12:39;;;;;;;15.35;10.70;;;436.00;2355.20;;;;;;4916193;29;20059;-81
2022/05/03 16:15:05;;;;;;;11.45;8.40;;;436.00;2355.20;;;;;;4899382;29;20036;-80
2022/05/03 16:17:32;;;;;;;12.13;8.70;;;435.90;2355.20;;;;;;4880619;29;20056;-81
2022/05/03 16:19:58;;;;;;;18.63;14.45;;;435.80;2355.20;;;;;;4888213;29;20039;-80